^^
Station Historical Data
Daily Summary for February 22, 2018 Units:  Metric    English   Both
« Previous Day
Next Day »
Daily Weekly Monthly Yearly Custom
  High: Low: Average:
Temperature: -17.8 °C 23.9 °C 31.5 °C
Dew Point: -17.8 °C 3.3 °C 7.3 °C
Humidity: Humidity% 11% 25%
Wind Speed: 0km/h 0km/h 15.8km/h
Wind Gust: 0km/h - -
Wind- - WSW
Pressure: 0 hPa 996.8 hPa -
Precipitation: 0 mm    
Historical Graphs
 
 
Tabular Data for February 22, 2018
Time Temperature Dew Point Pressure Wind Wind Speed Wind Gust Humidity Rainfall Rate (Hourly) solar Conditions
-17.8 °C -17.8 °C 0 hPa Calm     Humidity% 0 mm SolarRadiationWatts/m^2 W/m2 Conditions
13:31 37.3 °C 9 °C 1001.2 hPa NNW 17.7 km/h 30.6 km/h 18% 0 mm 932.0 W/m2
13:41 38.3 °C 9 °C 1000.9 hPa NNW 13 km/h 20.9 km/h 17% 0 mm 921.0 W/m2
14:02 38.1 °C 7.9 °C 1000.6 hPa NNW 3.2 km/h 24.1 km/h 16% 0 mm 905.0 W/m2
14:17 38.7 °C 8.4 °C 1000.2 hPa NW 22.7 km/h 25.7 km/h 16% 0 mm 900.0 W/m2
14:32 38 °C 6.9 °C 999.9 hPa WNW 7.9 km/h 17.7 km/h 15% 0 mm 879.0 W/m2
14:47 38.5 °C 6.3 °C 999.5 hPa WNW 13 km/h 30.6 km/h 14% 0 mm 867.0 W/m2
15:03 38.4 °C 7.2 °C 999.5 hPa NW 9.7 km/h 12.9 km/h 15% 0 mm 863.0 W/m2
15:12 38.9 °C 4.4 °C 998.9 hPa NW 9.7 km/h 22.5 km/h 12% 0 mm 817.0 W/m2
15:35 39.1 °C 3.3 °C 998.5 hPa NW 9.7 km/h 17.7 km/h 11% 0 mm 758.0 W/m2
15:50 39.3 °C 4.7 °C 998.5 hPa NW 7.9 km/h 17.7 km/h 12% 0 mm 719.0 W/m2
16:06 39 °C 4.4 °C 997.9 hPa NW 4.7 km/h 4.8 km/h 12% 0 mm 710.0 W/m2
16:26 38.9 °C 4.4 °C 997.9 hPa NW 11.1 km/h 22.5 km/h 12% 0 mm 610.0 W/m2
16:38 39.3 °C 4.7 °C 997.5 hPa NW 7.9 km/h 9.7 km/h 12% 0 mm 573.0 W/m2
16:49 39.4 °C 4.7 °C 997.5 hPa NW 16.3 km/h 22.5 km/h 12% 0 mm 540.0 W/m2
16:57 39.1 °C 4.5 °C 997.2 hPa Calm     12% 0 mm 512.0 W/m2
17:07 39.2 °C 4.6 °C 997.2 hPa WNW 13 km/h 24.1 km/h 12% 0 mm 67.0 W/m2
17:14 38.9 °C 4.4 °C 997.2 hPa West 14.3 km/h 22.5 km/h 12% 0 mm 60.0 W/m2
17:20 38.6 °C 4.1 °C 997.2 hPa Calm   6.4 km/h 12% 0 mm 65.0 W/m2
17:25 38.4 °C 4 °C 997.2 hPa West 7.9 km/h 12.9 km/h 12% 0 mm 70.0 W/m2
17:32 38.2 °C 3.8 °C 996.8 hPa West 9.7 km/h 16.1 km/h 12% 0 mm 79.0 W/m2
17:35 38.2 °C 5 °C 996.8 hPa Calm     13% 0 mm 107.0 W/m2
17:45 37.6 °C 6.6 °C 997.5 hPa SW 35.2 km/h 41.8 km/h 15% 0 mm 318.0 W/m2
18:01 36.5 °C 3.6 °C 997.5 hPa SSW 35.2 km/h 38.6 km/h 13% 0 mm 302.0 W/m2
18:16 36.2 °C 5.5 °C 997.5 hPa SSW 32 km/h 40.2 km/h 15% 0 mm 221.0 W/m2
18:33 35.4 °C 5.8 °C 997.9 hPa SSW 25.9 km/h 35.4 km/h 16% 0 mm 171.0 W/m2
21:49 27.7 °C 9.5 °C 1001.9 hPa SSW 16.3 km/h 24.1 km/h 32% 0 mm 0.0 W/m2
21:56 27.7 °C 9.5 °C 1001.9 hPa SSW 17.7 km/h 25.7 km/h 32% 0 mm 0.0 W/m2
22:01 27.4 °C 10.1 °C 1001.9 hPa SW 24.1 km/h 25.7 km/h 34% 0 mm 0.0 W/m2
22:06 27.2 °C 10 °C 1001.9 hPa SSW 20.9 km/h 27.4 km/h 34% 0 mm 0.0 W/m2
22:16 26.9 °C 9.7 °C 1001.9 hPa SSW 20.9 km/h 27.4 km/h 34% 0 mm 0.0 W/m2
22:24 26.8 °C 10.1 °C 1001.9 hPa SSW 22.7 km/h 22.7 km/h 35% 0 mm 0.0 W/m2
22:30 26.7 °C 10 °C 1001.9 hPa SSW 16.3 km/h 22.5 km/h 35% 0 mm 0.0 W/m2
22:35 26.7 °C 10.4 °C 1001.9 hPa SW 20.9 km/h 25.7 km/h 36% 0 mm 0.0 W/m2
22:40 26.6 °C 10.3 °C 1002.3 hPa SSW 24.1 km/h 24.1 km/h 36% 0 mm 0.0 W/m2
22:45 26.5 °C 10.2 °C 1002.3 hPa SSW 19.5 km/h 24.1 km/h 36% 0 mm 0.0 W/m2
22:50 26.3 °C 10.4 °C 1002.3 hPa SW 19.5 km/h 25.7 km/h 37% 0 mm 0.0 W/m2
22:55 25.9 °C 10.9 °C 1002.3 hPa SSW 24.1 km/h 27.4 km/h 39% 0 mm 0.0 W/m2
23:10 25.2 °C 11.4 °C 1002.6 hPa SW 20.9 km/h 29 km/h 42% 0 mm 0.0 W/m2
23:20 24.6 °C 11.5 °C 1002.6 hPa SW 22.7 km/h 24.1 km/h 44% 0 mm 0.0 W/m2
23:25 24.4 °C 11.7 °C 1002.9 hPa SW 19.5 km/h 29 km/h 45% 0 mm 0.0 W/m2
23:31 24.2 °C 11.5 °C 1002.9 hPa SSW 13 km/h 24.1 km/h 45% 0 mm 0.0 W/m2
23:36 24.1 °C 11.8 °C 1002.6 hPa SSW 13 km/h 20.9 km/h 46% 0 mm 0.0 W/m2
23:41 24 °C 11.7 °C 1002.6 hPa SSW 20.9 km/h 20.9 km/h 46% 0 mm 0.0 W/m2
23:46 23.9 °C 11.9 °C 1002.6 hPa SSW 19.5 km/h 22.5 km/h 47% 0 mm 0.0 W/m2
23:51 23.9 °C 11.9 °C 1002.6 hPa SSW 19.5 km/h 20.9 km/h 47% 0 mm 0.0 W/m2
23:56 23.9 °C 11.9 °C 1002.6 hPa SSW 20.9 km/h 20.9 km/h 47% 0 mm 0.0 W/m2
Canyon Roadhouse, Fishriver Canyon, Namibia
Compliments of Weather Underground - 1.75 mb